Columbus, OH

4:34 PM EDT on May 29, 2015 (GMT -0400)
WX8Q Worthington Estates East | | Change Station
CLOSE
Current Station
Personal Weather Station
Location: Worthington, OH
Elevation: 922 ft
Nearby Weather Stations

Elev 922 ft 40.10 °N, 83.01 °W | Updated 46 seconds ago

Scattered Clouds
Scattered Clouds
82.6 °F
Feels Like 84 °F
N
4.1
Wind Variable Wind from SE
Gusts 7.2 mph

Today
High -- | Low -- °F
--% Chance of Precip.
Yesterday
High -- | Low -- °F
Precip. -- in
6:06 AM 8:52 PM
Waxing Gibbous, 85% visible
Pressure 30.08 in
Visibility 10.0 miles
Clouds Scattered Clouds 4700 ft
Heat Index 84 °F
Dew Point 65 °F
Humidity 55%
Rainfall 0.00 in
Snow Depth Not available.
UV 0.0 out of 12
Pollen 8.40 out of 12
Air Quality Not available.
Flu Activity Local Activity
METAR KOSU 291953Z 18011KT 10SM SCT047 28/18 A3010 RMK AO2 SLP186 T02830178

More Conditions Fewer Conditions

Pressure 30.08 in
Visibility 10.0 miles
Clouds Scattered Clouds 4700 ft
Heat Index 84 °F
Dew Point 65 °F
Humidity 55%
Rainfall 0.00 in
Snow Depth Not available.
UV 0.0 out of 12
Pollen 8.40 out of 12
Air Quality Not available.
Flu Activity Local Activity
METAR KOSU 291953Z 18011KT 10SM SCT047 28/18 A3010 RMK AO2 SLP186 T02830178

More Conditions Fewer Conditions

10-Day Weather Forecast

Almanac

Astronomy

May. 29, 2015 Rise Set
Actual Time
Civil Twilight
Nautical Twilight
Astronomical Twilight
Moon
Length of Visible Light
Length of Day
Tomorrow will be .
, % of the Moon is Illuminated

Today's Extremes

State Highs State Lows

Community

WunderPhotos

Upload Photos

1,825,347 photos uploaded!

WunderBlogs® & News

Nearby

Air Quality

  Air Quality AQ Index Pollutant
Not available.

Snow Depth

Station Depth Elevation

Earthquake Activity

City Distance Mag. Time & Date
Minimum magnitude displayed is 2.5.

Coastal Water Temperatures

Place Temperature

Stations

Nearby Weather Stations

Station Location Temp. Windchill Dew Point Humidity Wind Precip. Elev Updated Type